createdAt,value
2019-04-25T00:00:46.634Z,99969.78
2019-04-25T00:03:22.286Z,99972.06
2019-04-25T00:05:55.770Z,99973.55
2019-04-25T00:08:29.341Z,99971.80
2019-04-25T00:11:03.730Z,99971.63
2019-04-25T00:13:38.044Z,99967.23
2019-04-25T00:16:12.375Z,99975.08
2019-04-25T00:18:46.323Z,99979.64
2019-04-25T00:21:27.389Z,99970.77
2019-04-25T00:24:05.134Z,99972.50
2019-04-25T00:26:44.084Z,99971.94
2019-04-25T00:29:18.060Z,99976.19
2019-04-25T00:31:53.311Z,99974.14
2019-04-25T00:34:27.170Z,99975.61
2019-04-25T00:37:02.347Z,99969.89
2019-04-25T00:39:35.925Z,99969.89
2019-04-25T00:42:09.615Z,99970.36
2019-04-25T00:44:44.801Z,99973.44
2019-04-25T00:47:18.372Z,99975.71
2019-04-25T00:49:52.440Z,99980.50
2019-04-25T00:52:26.747Z,99980.06
2019-04-25T00:55:01.919Z,99977.83
2019-04-25T00:57:36.916Z,99985.76
2019-04-25T01:00:15.139Z,99985.41
2019-04-25T01:02:52.494Z,99980.31
2019-04-25T01:05:25.456Z,99986.96
2019-04-25T01:07:58.913Z,99992.70
2019-04-25T01:10:32.495Z,99987.30
2019-04-25T01:13:06.504Z,99987.10
2019-04-25T01:15:40.113Z,99988.67
2019-04-25T01:18:13.647Z,99993.11
2019-04-25T01:20:47.213Z,99991.45
2019-04-25T01:23:20.720Z,100002.39
2019-04-25T01:25:57.331Z,99997.17
2019-04-25T01:28:30.837Z,100007.09
2019-04-25T01:31:06.297Z,100007.94
2019-04-25T01:33:39.842Z,100010.06
2019-04-25T01:36:31.146Z,100012.67
2019-04-25T01:39:08.620Z,100015.69
2019-04-25T01:41:44.217Z,100022.95
2019-04-25T01:44:19.338Z,100021.06
2019-04-25T01:46:54.463Z,100011.08
2019-04-25T01:49:28.397Z,100018.07
2019-04-25T01:52:03.448Z,100017.55
2019-04-25T01:54:37.025Z,100011.08
2019-04-25T01:57:11.356Z,100007.63
2019-04-25T01:59:44.849Z,100003.33
2019-04-25T02:02:20.056Z,100010.44
2019-04-25T02:04:55.357Z,100006.43
2019-04-25T02:07:28.723Z,100005.65
2019-04-25T02:10:03.781Z,100003.33
2019-04-25T02:12:39.111Z,100005.53
2019-04-25T02:15:14.294Z,100008.17
2019-04-25T02:17:47.749Z,100007.65
2019-04-25T02:20:21.271Z,100013.80
2019-04-25T02:22:55.632Z,100017.70
2019-04-25T02:25:29.900Z,100019.75
2019-04-25T02:28:05.631Z,100024.60
2019-04-25T02:30:38.833Z,100029.07
2019-04-25T02:33:14.220Z,100048.77
2019-04-25T02:35:47.584Z,100039.25
2019-04-25T02:38:21.121Z,100038.92
2019-04-25T02:40:58.675Z,100049.39
2019-04-25T02:43:29.954Z,100047.25
2019-04-25T02:46:08.756Z,100054.16
2019-04-25T02:48:49.354Z,100058.99
2019-04-25T02:51:45.096Z,100058.53
2019-04-25T02:54:18.192Z,100056.33
2019-04-25T02:56:51.615Z,100052.80
2019-04-25T02:59:25.491Z,100056.63
2019-04-25T03:01:59.272Z,100061.09
2019-04-25T03:04:34.043Z,100062.52
2019-04-25T03:07:11.119Z,100064.84
2019-04-25T03:09:44.872Z,100060.10
2019-04-25T03:12:29.200Z,100064.09
2019-04-25T03:14:54.977Z,100064.16
2019-04-25T03:17:28.280Z,100066.45
2019-04-25T03:20:06.686Z,100073.42
2019-04-25T03:22:38.638Z,100071.94
2019-04-25T03:25:16.442Z,100080.97
2019-04-25T03:27:47.319Z,100079.20
2019-04-25T03:30:20.861Z,100086.14
2019-04-25T03:32:56.212Z,100086.08
2019-04-25T03:35:29.434Z,100091.80
2019-04-25T03:38:04.298Z,100089.34
2019-04-25T03:40:37.942Z,100099.80
2019-04-25T03:43:11.367Z,100097.31
2019-04-25T03:45:45.334Z,100103.05
2019-04-25T03:48:18.899Z,100100.97
2019-04-25T03:50:53.957Z,100094.96
2019-04-25T03:53:27.565Z,100094.83
2019-04-25T03:56:01.049Z,100094.25
2019-04-25T03:58:34.480Z,100096.47
2019-04-25T04:01:09.323Z,100092.87
2019-04-25T04:03:43.976Z,100092.46
2019-04-25T04:06:17.658Z,100098.13
2019-04-25T04:08:51.075Z,100091.12
2019-04-25T04:11:24.708Z,100085.81
2019-04-25T04:13:58.145Z,100075.84
2019-04-25T04:16:34.275Z,100077.53
2019-04-25T04:19:08.867Z,100065.80
2019-04-25T04:21:50.047Z,100075.23
2019-04-25T04:24:25.853Z,100063.01
2019-04-25T04:27:14.471Z,100064.79
2019-04-25T04:29:48.463Z,100064.26
2019-04-25T04:32:21.968Z,100069.09
2019-04-25T04:34:55.411Z,100073.73
2019-04-25T04:37:28.861Z,100076.41
2019-04-25T04:40:03.585Z,100085.67
2019-04-25T04:42:37.135Z,100085.14
2019-04-25T04:45:10.657Z,100099.80
2019-04-25T04:47:44.124Z,100121.95
2019-04-25T04:50:17.543Z,100132.27
2019-04-25T04:52:50.949Z,100143.73
2019-04-25T04:55:24.582Z,100156.19
2019-04-25T04:57:58.157Z,100175.20
2019-04-25T05:00:31.765Z,100192.66
2019-04-25T05:03:26.679Z,100192.15
2019-04-25T05:06:03.659Z,100183.19
2019-04-25T05:08:45.008Z,100184.97
2019-04-25T05:11:18.453Z,100181.09
2019-04-25T05:13:51.975Z,100185.94
2019-04-25T05:16:25.390Z,100182.30
2019-04-25T05:18:58.881Z,100176.36
2019-04-25T05:21:33.690Z,100159.84
2019-04-25T05:24:07.259Z,100136.51
2019-04-25T05:26:40.698Z,100137.09
2019-04-25T05:29:19.776Z,100136.04
2019-04-25T05:31:51.013Z,100126.14
2019-04-25T05:34:25.810Z,100125.05
2019-04-25T05:36:59.324Z,100113.00
2019-04-25T05:39:33.445Z,100089.50
2019-04-25T05:42:11.295Z,100082.12
2019-04-25T05:44:44.921Z,100068.64
2019-04-25T05:47:20.499Z,100065.58
2019-04-25T05:49:54.165Z,100059.41
2019-04-25T05:52:27.649Z,100061.97
2019-04-25T05:55:01.134Z,100045.07
2019-04-25T05:57:45.463Z,100053.64
2019-04-25T06:00:11.662Z,100055.77
2019-04-25T06:02:46.179Z,100067.66
2019-04-25T06:08:30.902Z,100074.27
2019-04-25T06:11:05.972Z,100073.23
2019-04-25T06:13:41.249Z,100084.20
2019-04-25T06:16:16.537Z,100092.77
2019-04-25T06:19:12.962Z,100095.40
2019-04-25T06:21:35.890Z,100096.78
2019-04-25T06:24:26.196Z,100102.90
2019-04-25T06:27:01.318Z,100105.13
2019-04-25T06:29:34.929Z,100119.19
2019-04-25T06:32:08.772Z,100125.32
2019-04-25T06:34:42.274Z,100126.02
2019-04-25T06:37:15.644Z,100124.11
2019-04-25T06:39:49.053Z,100129.98
2019-04-25T06:42:24.593Z,100131.23
2019-04-25T06:45:03.553Z,100121.73
2019-04-25T06:47:41.783Z,100125.81
2019-04-25T06:50:15.847Z,100126.17
2019-04-25T06:52:49.273Z,100136.45
2019-04-25T06:55:25.626Z,100129.56
2019-04-25T06:58:09.275Z,100125.60
2019-04-25T07:00:40.544Z,100117.74
2019-04-25T07:03:08.794Z,100123.25
2019-04-25T07:05:43.910Z,100115.69
2019-04-25T07:08:17.659Z,100115.94
2019-04-25T07:10:51.178Z,100117.86
2019-04-25T07:13:25.637Z,100122.88
2019-04-25T07:16:00.074Z,100122.69
2019-04-25T07:18:36.328Z,100124.25
2019-04-25T07:21:08.807Z,100122.15
2019-04-25T07:23:43.222Z,100122.77
2019-04-25T07:26:19.229Z,100127.75
2019-04-25T07:29:00.471Z,100122.09
2019-04-25T07:31:38.671Z,100109.25
2019-04-25T07:34:13.831Z,100102.30
2019-04-25T07:36:48.305Z,100092.92
2019-04-25T07:39:23.678Z,100095.26
2019-04-25T07:41:57.079Z,100087.77
2019-04-25T07:44:45.071Z,100101.31
2019-04-25T07:47:06.147Z,100105.86
2019-04-25T07:49:39.614Z,100086.52
2019-04-25T07:52:13.640Z,100085.14
2019-04-25T07:54:47.107Z,100088.34
2019-04-25T07:57:20.534Z,100080.13
2019-04-25T07:59:54.109Z,100080.57
2019-04-25T08:02:28.138Z,100081.94
2019-04-25T08:05:04.287Z,100078.13
2019-04-25T08:07:38.012Z,100082.23
2019-04-25T08:10:14.021Z,100066.80
2019-04-25T08:12:47.583Z,100074.29
2019-04-25T08:15:35.043Z,100069.02
2019-04-25T08:18:10.032Z,100077.25
2019-04-25T08:20:44.010Z,100075.10
2019-04-25T08:23:21.662Z,100087.75
2019-04-25T08:25:55.307Z,100088.07
2019-04-25T08:28:29.602Z,100091.95
2019-04-25T08:31:04.067Z,100085.30
2019-04-25T08:33:37.758Z,100081.84
2019-04-25T08:36:11.268Z,100086.66
2019-04-25T08:38:44.888Z,100083.35
2019-04-25T08:41:18.402Z,100078.42
2019-04-25T08:43:52.091Z,100065.67
2019-04-25T08:46:25.533Z,100061.98
2019-04-25T08:49:06.722Z,100061.86
2019-04-25T08:51:44.733Z,100077.36
2019-04-25T08:54:23.607Z,100064.73
2019-04-25T08:56:58.985Z,100070.36
2019-04-25T08:59:44.742Z,100066.59
2019-04-25T09:02:36.022Z,100074.33
2019-04-25T09:05:20.741Z,100064.83
2019-04-25T09:07:54.484Z,100058.80
2019-04-25T09:10:27.945Z,100057.78
2019-04-25T09:13:01.386Z,100058.11
2019-04-25T09:15:36.630Z,100049.64
2019-04-25T09:18:10.413Z,100047.14
2019-04-25T09:20:46.497Z,100047.34
2019-04-25T09:23:19.243Z,100037.37
2019-04-25T09:25:54.389Z,100036.56
2019-04-25T09:28:28.117Z,100030.44
2019-04-25T09:31:01.593Z,100033.80
2019-04-25T09:33:36.033Z,100028.84
2019-04-25T09:36:09.954Z,100019.44
2019-04-25T09:38:47.964Z,100020.22
2019-04-25T09:41:18.702Z,100012.47
2019-04-25T09:43:54.970Z,100009.02
2019-04-25T09:46:30.337Z,100004.58
2019-04-25T09:49:05.421Z,99994.95
2019-04-25T09:51:40.599Z,99995.84
2019-04-25T09:54:15.807Z,99990.74
2019-04-25T09:56:50.831Z,99987.94
2019-04-25T09:59:27.872Z,99989.01
2019-04-25T10:02:00.113Z,99987.38
2019-04-25T10:04:34.680Z,99983.58
2019-04-25T10:07:26.761Z,99980.03
2019-04-25T10:10:00.349Z,99980.38
2019-04-25T10:15:52.913Z,99975.60
2019-04-25T10:22:03.367Z,99957.02
2019-04-25T10:24:37.431Z,99944.41
2019-04-25T10:27:11.938Z,99942.34
2019-04-25T10:30:39.510Z,99943.50
2019-04-25T10:34:44.634Z,99937.14
2019-04-25T10:35:52.549Z,99923.83
2019-04-25T10:38:26.281Z,99915.19
2019-04-25T10:41:04.252Z,99908.71
2019-04-25T10:43:39.508Z,99908.19
2019-04-25T10:46:14.280Z,99893.81
2019-04-25T10:48:50.628Z,99879.84
2019-04-25T10:51:24.324Z,99874.25
2019-04-25T10:53:57.908Z,99869.76
2019-04-25T10:56:33.372Z,99860.26
2019-04-25T10:59:07.144Z,99862.03
2019-04-25T11:01:41.228Z,99854.97
2019-04-25T11:04:16.486Z,99843.69
2019-04-25T11:06:50.182Z,99839.11
2019-04-25T11:09:25.259Z,99840.09
2019-04-25T11:11:58.815Z,99825.98
2019-04-25T11:14:34.027Z,99822.72
2019-04-25T11:17:07.626Z,99822.05
2019-04-25T11:19:41.236Z,99816.84
2019-04-25T11:22:15.578Z,99823.75
2019-04-25T11:24:49.504Z,99812.58
2019-04-25T11:27:23.960Z,99808.90
2019-04-25T11:30:08.467Z,99801.31
2019-04-25T11:32:33.938Z,99800.31
2019-04-25T11:35:07.847Z,99799.70
2019-04-25T11:37:43.104Z,99793.33
2019-04-25T11:40:19.885Z,99791.48
2019-04-25T11:42:54.575Z,99783.67
2019-04-25T11:45:28.276Z,99773.23
2019-04-25T11:48:02.015Z,99781.86
2019-04-25T11:50:37.023Z,99771.12
2019-04-25T11:53:10.666Z,99767.58
2019-04-25T11:55:47.706Z,99777.58
2019-04-25T11:58:19.698Z,99775.41
2019-04-25T12:00:54.127Z,99779.33
2019-04-25T12:03:28.487Z,99765.25
2019-04-25T12:06:01.899Z,99768.94
2019-04-25T12:08:35.413Z,99772.20
2019-04-25T12:11:08.983Z,99764.77
2019-04-25T12:13:45.988Z,99764.55
2019-04-25T12:16:19.102Z,99761.88
2019-04-25T12:18:55.329Z,99754.81
2019-04-25T12:21:27.936Z,99747.31
2019-04-25T12:24:03.692Z,99738.12
2019-04-25T12:26:36.805Z,99745.72
2019-04-25T12:29:10.395Z,99743.27
2019-04-25T12:31:45.524Z,99743.63
2019-04-25T12:34:19.022Z,99739.42
2019-04-25T12:36:54.332Z,99740.50
2019-04-25T12:39:28.396Z,99731.55
2019-04-25T12:42:02.010Z,99730.97
2019-04-25T12:44:39.587Z,99739.63
2019-04-25T12:47:14.662Z,99722.50
2019-04-25T12:49:48.669Z,99707.58
2019-04-25T12:52:24.424Z,99708.61
2019-04-25T12:54:58.170Z,99707.28
2019-04-25T12:57:32.077Z,99700.64
2019-04-25T13:00:06.373Z,99697.08
2019-04-25T13:02:39.801Z,99694.66
2019-04-25T13:05:14.188Z,99686.81
2019-04-25T13:07:47.779Z,99680.89
2019-04-25T13:10:23.455Z,99675.02
2019-04-25T13:12:56.712Z,99679.95
2019-04-25T13:15:33.803Z,99675.78
2019-04-25T13:18:07.217Z,99672.37
2019-04-25T13:20:40.630Z,99653.05
2019-04-25T13:23:14.459Z,99654.93
2019-04-25T13:25:47.931Z,99658.18
2019-04-25T13:28:23.283Z,99658.64
2019-04-25T13:31:16.530Z,99658.34
2019-04-25T13:34:09.642Z,99653.91
2019-04-25T13:36:44.332Z,99642.17
2019-04-25T13:39:19.141Z,99630.30
2019-04-25T13:41:54.299Z,99624.38
2019-04-25T13:44:27.973Z,99620.25
2019-04-25T13:47:12.137Z,99608.38
2019-04-25T13:49:45.496Z,99601.25
2019-04-25T13:52:19.056Z,99599.16
2019-04-25T13:54:53.767Z,99597.91
2019-04-25T13:57:27.861Z,99585.61
2019-04-25T14:00:01.524Z,99585.20
2019-04-25T14:02:34.974Z,99586.94
2019-04-25T14:05:08.756Z,99588.08
2019-04-25T14:07:42.758Z,99584.30
2019-04-25T14:10:16.393Z,99580.27
2019-04-25T14:12:49.803Z,99578.05
2019-04-25T14:15:25.331Z,99567.37
2019-04-25T14:18:06.223Z,99559.69
2019-04-25T14:20:44.029Z,99572.13
2019-04-25T14:23:17.553Z,99564.39
2019-04-25T14:25:50.997Z,99555.91
2019-04-25T14:28:25.527Z,99556.11
2019-04-25T14:31:00.013Z,99549.54
2019-04-25T14:33:35.270Z,99552.86
2019-04-25T14:36:09.000Z,99545.42
2019-04-25T14:38:42.430Z,99536.03
2019-04-25T14:41:16.000Z,99530.34
2019-04-25T14:43:49.439Z,99537.20
2019-04-25T14:46:23.001Z,99537.56
2019-04-25T14:48:56.551Z,99532.62
2019-04-25T14:51:30.652Z,99521.48
2019-04-25T14:54:05.817Z,99534.05
2019-04-25T14:56:49.757Z,99532.41
2019-04-25T14:59:24.485Z,99525.90
2019-04-25T15:01:59.546Z,99521.53
2019-04-25T15:04:33.188Z,99521.67
2019-04-25T15:07:06.642Z,99516.42
2019-04-25T15:09:40.151Z,99506.60
2019-04-25T15:12:14.353Z,99506.44
2019-04-25T15:14:47.873Z,99503.95
2019-04-25T15:17:21.433Z,99505.84
2019-04-25T15:19:54.917Z,99505.52
2019-04-25T15:22:28.354Z,99509.50
2019-04-25T15:25:01.787Z,99500.26
2019-04-25T15:27:35.334Z,99502.82
2019-04-25T15:30:10.550Z,99484.97
2019-04-25T15:32:44.227Z,99488.55
2019-04-25T15:35:19.315Z,99479.55
2019-04-25T15:37:56.856Z,99477.59
2019-04-25T15:40:31.946Z,99474.62
2019-04-25T15:43:12.503Z,99466.98
2019-04-25T15:45:47.682Z,99453.23
2019-04-25T15:48:21.340Z,99441.42
2019-04-25T15:50:55.590Z,99440.70
2019-04-25T15:53:29.336Z,99444.47
2019-04-25T15:56:02.909Z,99448.06
2019-04-25T15:58:37.369Z,99442.50
2019-04-25T16:01:11.465Z,99430.39
2019-04-25T16:03:44.981Z,99439.58
2019-04-25T16:06:18.614Z,99438.99
2019-04-25T16:08:52.365Z,99437.45
2019-04-25T16:11:26.599Z,99437.87
2019-04-25T16:14:00.420Z,99424.47
2019-04-25T16:16:33.938Z,99429.52
2019-04-25T16:19:07.623Z,99447.05
2019-04-25T16:21:42.234Z,99450.48
2019-04-25T16:24:15.848Z,99443.80
2019-04-25T16:26:49.331Z,99460.63
2019-04-25T16:29:23.283Z,99460.73
2019-04-25T16:31:58.424Z,99457.25
2019-04-25T16:34:31.749Z,99454.66
2019-04-25T16:37:05.361Z,99458.33
2019-04-25T16:39:40.507Z,99457.95
2019-04-25T16:42:14.115Z,99449.14
2019-04-25T16:44:50.896Z,99448.88
2019-04-25T16:47:25.966Z,99445.48
2019-04-25T16:49:59.347Z,99452.48
2019-04-25T16:52:33.836Z,99461.89
2019-04-25T16:55:08.569Z,99462.80
2019-04-25T16:57:42.056Z,99459.63
2019-04-25T17:00:20.315Z,99458.88
2019-04-25T17:03:02.274Z,99478.86
2019-04-25T17:05:35.729Z,99515.33
2019-04-25T17:08:09.326Z,99548.31
2019-04-25T17:10:42.750Z,99562.62
2019-04-25T17:13:16.688Z,99552.86
2019-04-25T17:16:03.711Z,99567.59
2019-04-25T17:18:38.814Z,99570.03
2019-04-25T17:21:12.294Z,99587.00
2019-04-25T17:23:45.699Z,99589.48
2019-04-25T17:26:20.021Z,99599.19
2019-04-25T17:28:55.137Z,99605.16
2019-04-25T17:31:30.272Z,99608.83
2019-04-25T17:34:05.472Z,99606.28
2019-04-25T17:36:41.467Z,99617.30
2019-04-25T17:39:26.967Z,99635.48
2019-04-25T17:42:01.459Z,99649.30
2019-04-25T17:44:36.159Z,99661.05
2019-04-25T17:47:09.771Z,99664.98
2019-04-25T17:49:44.374Z,99683.90
2019-04-25T17:52:17.968Z,99700.15
2019-04-25T17:54:51.526Z,99705.11
2019-04-25T17:57:25.243Z,99726.20
2019-04-25T17:59:58.854Z,99740.41
2019-04-25T18:02:33.525Z,99754.41
2019-04-25T18:05:07.536Z,99761.52
2019-04-25T18:07:41.791Z,99789.50
2019-04-25T18:10:15.852Z,99789.50
2019-04-25T18:12:49.345Z,99812.72
2019-04-25T18:15:24.426Z,99820.47
2019-04-25T18:17:58.027Z,99837.83
2019-04-25T18:20:36.664Z,99836.16
2019-04-25T18:23:11.924Z,99846.33
2019-04-25T18:26:02.185Z,99855.95
2019-04-25T18:28:37.458Z,99868.09
2019-04-25T18:31:11.063Z,99875.52
2019-04-25T18:33:44.611Z,99892.98
2019-04-25T18:36:28.709Z,99894.85
2019-04-25T18:39:03.815Z,99908.50
2019-04-25T18:41:46.016Z,99923.98
2019-04-25T18:44:19.723Z,99932.00
2019-04-25T18:46:53.393Z,99930.42
2019-04-25T18:49:26.905Z,99941.05
2019-04-25T18:52:01.978Z,99961.03
2019-04-25T18:54:45.704Z,99965.80
2019-04-25T18:57:32.657Z,99984.41
2019-04-25T19:00:24.927Z,99984.73
2019-04-25T19:03:09.277Z,99988.05
2019-04-25T19:05:54.496Z,99989.45
2019-04-25T19:08:29.811Z,99999.66
2019-04-25T19:11:04.316Z,100019.36
2019-04-25T19:13:47.388Z,100026.50
2019-04-25T19:16:31.947Z,100032.98
2019-04-25T19:19:06.775Z,100040.87
2019-04-25T19:21:41.562Z,100038.62
2019-04-25T19:24:31.176Z,100046.63
2019-04-25T19:27:05.629Z,100051.63
2019-04-25T19:29:40.341Z,100049.31
2019-04-25T19:32:14.096Z,100055.66
2019-04-25T19:34:48.740Z,100052.06
2019-04-25T19:37:22.538Z,100040.11
2019-04-25T19:40:06.961Z,100039.91
2019-04-25T19:42:42.311Z,100051.61
2019-04-25T19:45:16.103Z,100058.29
2019-04-25T19:47:49.781Z,100066.33
2019-04-25T19:50:23.401Z,100064.60
2019-04-25T19:52:57.072Z,100062.34
2019-04-25T19:55:30.795Z,100064.82
2019-04-25T19:58:04.724Z,100068.99
2019-04-25T20:00:38.367Z,100077.20
2019-04-25T20:03:13.748Z,100085.81
2019-04-25T20:06:04.321Z,100095.57
2019-04-25T20:08:48.738Z,100097.83
2019-04-25T20:11:26.992Z,100088.77
2019-04-25T20:14:00.712Z,100091.85
2019-04-25T20:16:36.007Z,100098.10
2019-04-25T20:19:09.671Z,100100.63
2019-04-25T20:21:44.447Z,100096.12
2019-04-25T20:24:18.259Z,100104.23
2019-04-25T20:26:52.589Z,100100.61
2019-04-25T20:29:26.218Z,100107.59
2019-04-25T20:31:59.769Z,100109.84
2019-04-25T20:34:33.247Z,100102.02
2019-04-25T20:37:06.850Z,100111.45
2019-04-25T20:39:40.447Z,100115.73
2019-04-25T20:42:13.975Z,100121.11
2019-04-25T20:44:47.727Z,100115.91
2019-04-25T20:47:21.516Z,100122.15
2019-04-25T20:49:55.352Z,100121.17
2019-04-25T20:52:28.910Z,100131.34
2019-04-25T20:55:02.455Z,100131.19
2019-04-25T20:57:35.969Z,100127.78
2019-04-25T21:00:09.796Z,100136.82
2019-04-25T21:02:43.408Z,100135.70
2019-04-25T21:05:16.926Z,100144.55
2019-04-25T21:07:51.251Z,100148.26
2019-04-25T21:10:24.833Z,100150.36
2019-04-25T21:12:58.433Z,100147.13
2019-04-25T21:15:45.995Z,100144.45
2019-04-25T21:18:36.459Z,100150.41
2019-04-25T21:21:10.056Z,100153.42
2019-04-25T21:23:43.592Z,100162.00
2019-04-25T21:26:17.170Z,100155.47
2019-04-25T21:28:51.013Z,100169.16
2019-04-25T21:31:25.649Z,100173.59
2019-04-25T21:34:00.191Z,100164.64
2019-04-25T21:36:34.112Z,100173.22
2019-04-25T21:39:09.830Z,100161.64
2019-04-25T21:41:51.418Z,100157.88
2019-04-25T21:44:25.882Z,100150.95
2019-04-25T21:46:59.642Z,100162.28
2019-04-25T21:49:34.275Z,100155.39
2019-04-25T21:52:07.945Z,100153.05
2019-04-25T21:54:41.895Z,100144.58
2019-04-25T21:57:15.705Z,100140.48
2019-04-25T22:00:00.520Z,100150.83
2019-04-25T22:02:24.936Z,100152.14
2019-04-25T22:04:58.815Z,100145.23
2019-04-25T22:07:32.765Z,100138.78
2019-04-25T22:10:08.232Z,100140.91
2019-04-25T22:12:41.762Z,100126.13
2019-04-25T22:15:15.889Z,100127.47
2019-04-25T22:17:49.519Z,100134.85
2019-04-25T22:20:23.149Z,100141.28
2019-04-25T22:22:57.032Z,100141.13
2019-04-25T22:25:31.713Z,100144.50
2019-04-25T22:28:05.670Z,100157.03
2019-04-25T22:30:40.465Z,100151.47
2019-04-25T22:33:15.603Z,100139.41
2019-04-25T22:35:53.658Z,100121.53
2019-04-25T22:38:27.557Z,100117.30
2019-04-25T22:41:01.294Z,100135.55
2019-04-25T22:43:36.985Z,100144.41
2019-04-25T22:46:10.705Z,100140.23
2019-04-25T22:48:50.125Z,100122.95
2019-04-25T22:51:23.714Z,100125.57
2019-04-25T22:53:57.603Z,100141.77
2019-04-25T22:56:31.119Z,100163.33
2019-04-25T22:59:04.923Z,100167.27
2019-04-25T23:01:48.586Z,100159.91
2019-04-25T23:04:40.174Z,100163.66
2019-04-25T23:07:14.665Z,100157.97
2019-04-25T23:09:49.587Z,100150.53
2019-04-25T23:12:23.393Z,100154.19
2019-04-25T23:14:56.893Z,100153.66
2019-04-25T23:17:30.477Z,100146.02
2019-04-25T23:20:05.726Z,100132.77
2019-04-25T23:22:39.449Z,100143.98
2019-04-25T23:25:14.813Z,100135.03
2019-04-25T23:27:50.075Z,100142.63
2019-04-25T23:30:28.141Z,100148.42
2019-04-25T23:33:01.701Z,100151.84
2019-04-25T23:35:35.759Z,100156.63
2019-04-25T23:38:12.142Z,100155.89
2019-04-25T23:40:44.920Z,100160.39
2019-04-25T23:43:18.932Z,100163.06
2019-04-25T23:45:52.434Z,100147.24
2019-04-25T23:48:26.179Z,100131.56
2019-04-25T23:50:59.654Z,100132.35
2019-04-25T23:53:33.293Z,100151.18
2019-04-25T23:56:07.732Z,100165.25
2019-04-25T23:58:42.148Z,100165.25
